Time;durP1;ratioP1;P1;durP2;ratioP2;P2;SDS_P1;SDS_P2;PMS_P1;PMS_P2;Temp;Humidity;BMP_temperature;BMP_pressure;BME280_temperature;BME280_humidity;BME280_pressure;Samples;Min_cycle;Max_cycle;Signal;HPM_P1;HPM_P2
2022/01/31 00:02:24;;;;;;;11.50;4.50;;;;;;;;;;5051999;28;20110;-67
2022/01/31 00:04:51;;;;;;;13.90;5.20;;;;;;;;;;5051790;28;20045;-67
2022/01/31 00:07:18;;;;;;;17.15;5.07;;;;;;;;;;5051915;28;20479;-68
2022/01/31 00:09:45;;;;;;;10.70;4.03;;;;;;;;;;5051697;28;20049;-67
2022/01/31 00:12:14;;;;;;;14.02;4.22;;;;;;;;;;5051928;28;20202;-67
2022/01/31 00:14:43;;;;;;;12.40;4.82;;;;;;;;;;5051593;28;20462;-67
2022/01/31 00:17:12;;;;;;;10.85;4.30;;;;;;;;;;5051737;28;20090;-67
2022/01/31 00:19:40;;;;;;;15.23;4.57;;;;;;;;;;5067093;28;20114;-68
2022/01/31 00:22:08;;;;;;;14.10;4.70;;;;;;;;;;5051674;28;20107;-67
2022/01/31 00:24:35;;;;;;;12.95;4.93;;;;;;;;;;5051565;28;20044;-67
2022/01/31 00:27:03;;;;;;;13.40;3.97;;;;;;;;;;5051604;28;20052;-67
2022/01/31 00:29:29;;;;;;;13.45;4.28;;;;;;;;;;5051324;28;20045;-67
2022/01/31 00:31:56;;;;;;;10.05;4.10;;;;;;;;;;5051646;28;20048;-67
2022/01/31 00:34:23;;;;;;;14.10;4.78;;;;;;;;;;5051406;28;20052;-68
2022/01/31 00:36:50;;;;;;;14.73;4.22;;;;;;;;;;5051454;28;20061;-68
2022/01/31 00:39:16;;;;;;;13.65;4.75;;;;;;;;;;5031854;28;20046;-67
2022/01/31 00:41:43;;;;;;;28.40;7.78;;;;;;;;;;5031726;28;20107;-67
2022/01/31 00:46:50;;;;;;;12.45;3.67;;;;;;;;;;5031532;28;20538;-67
2022/01/31 00:49:27;;;;;;;14.48;5.03;;;;;;;;;;5031513;28;20077;-67
2022/01/31 00:51:54;;;;;;;9.95;3.75;;;;;;;;;;5041595;28;20110;-67
2022/01/31 00:54:21;;;;;;;11.45;3.80;;;;;;;;;;5051303;28;20129;-68
2022/01/31 00:56:49;;;;;;;18.05;5.47;;;;;;;;;;5051199;28;20052;-66
2022/01/31 00:59:16;;;;;;;11.90;3.30;;;;;;;;;;5051190;28;20091;-68
2022/01/31 01:01:43;;;;;;;15.10;3.90;;;;;;;;;;5051376;28;20053;-68
2022/01/31 01:04:10;;;;;;;12.95;3.40;;;;;;;;;;5051279;28;20060;-67
2022/01/31 01:06:37;;;;;;;12.25;3.90;;;;;;;;;;5051151;28;20045;-68
2022/01/31 01:09:04;;;;;;;11.75;3.85;;;;;;;;;;5052798;28;20071;-68
2022/01/31 01:11:30;;;;;;;16.30;5.45;;;;;;;;;;5055199;28;20491;-67
2022/01/31 01:13:57;;;;;;;11.32;4.45;;;;;;;;;;5053496;28;20052;-67
2022/01/31 01:16:24;;;;;;;13.63;4.50;;;;;;;;;;5055055;28;20428;-68
2022/01/31 01:18:50;;;;;;;11.80;3.78;;;;;;;;;;5055080;28;20459;-67
2022/01/31 01:21:17;;;;;;;13.63;4.13;;;;;;;;;;5054905;28;20083;-67
2022/01/31 01:23:43;;;;;;;11.02;4.03;;;;;;;;;;5054752;28;20074;-68
2022/01/31 01:26:10;;;;;;;12.05;4.35;;;;;;;;;;5054825;28;20041;-69
2022/01/31 01:28:37;;;;;;;23.83;5.10;;;;;;;;;;5054818;28;20099;-67
2022/01/31 01:31:03;;;;;;;9.68;3.30;;;;;;;;;;5054622;28;20098;-67
2022/01/31 01:33:37;;;;;;;17.27;4.25;;;;;;;;;;5054550;28;20049;-68
2022/01/31 01:36:04;;;;;;;14.60;4.20;;;;;;;;;;5054633;28;20570;-68
2022/01/31 01:38:31;;;;;;;15.32;5.03;;;;;;;;;;5054598;28;20099;-68
2022/01/31 01:40:59;;;;;;;15.60;4.20;;;;;;;;;;5054640;28;20045;-68
2022/01/31 01:43:27;;;;;;;18.45;4.35;;;;;;;;;;5054403;28;20107;-68
2022/01/31 01:45:54;;;;;;;12.27;3.78;;;;;;;;;;5054600;28;20447;-68
2022/01/31 01:48:21;;;;;;;12.63;3.88;;;;;;;;;;5054548;28;20056;-67
2022/01/31 01:50:48;;;;;;;12.02;3.53;;;;;;;;;;5054110;28;20071;-67
2022/01/31 01:53:14;;;;;;;9.88;3.33;;;;;;;;;;5054311;28;20052;-68
2022/01/31 01:55:43;;;;;;;8.70;3.67;;;;;;;;;;5054146;28;20562;-68
2022/01/31 01:58:15;;;;;;;10.43;3.92;;;;;;;;;;5054309;28;20178;-67
2022/01/31 02:01:02;;;;;;;15.38;4.32;;;;;;;;;;5054001;28;20041;-67
2022/01/31 02:03:32;;;;;;;16.40;4.38;;;;;;;;;;5054059;28;20071;-68
2022/01/31 02:05:59;;;;;;;12.18;3.85;;;;;;;;;;5054127;28;20052;-68
2022/01/31 02:08:27;;;;;;;10.80;3.58;;;;;;;;;;5054123;28;20049;-68
2022/01/31 02:10:54;;;;;;;14.93;4.10;;;;;;;;;;5057945;28;20049;-68
2022/01/31 02:13:21;;;;;;;19.08;4.60;;;;;;;;;;5069639;28;20479;-69
2022/01/31 02:15:52;;;;;;;13.18;3.70;;;;;;;;;;5053660;28;20066;-68
2022/01/31 02:18:23;;;;;;;10.27;3.42;;;;;;;;;;5053855;28;20111;-68
2022/01/31 02:20:50;;;;;;;12.25;4.07;;;;;;;;;;5052791;28;20079;-67
2022/01/31 02:23:17;;;;;;;12.05;3.83;;;;;;;;;;5053752;28;20095;-67
2022/01/31 02:25:57;;;;;;;13.57;4.45;;;;;;;;;;5053815;28;20045;-68
2022/01/31 02:28:25;;;;;;;15.05;3.97;;;;;;;;;;5053735;28;20056;-68
2022/01/31 02:30:53;;;;;;;13.20;3.65;;;;;;;;;;5053520;28;20098;-68
2022/01/31 02:33:20;;;;;;;13.00;4.45;;;;;;;;;;5053264;28;20056;-69
2022/01/31 02:35:57;;;;;;;10.95;4.22;;;;;;;;;;5053468;28;20049;-68
2022/01/31 02:38:24;;;;;;;8.90;4.15;;;;;;;;;;5053327;28;20053;-68
2022/01/31 02:40:51;;;;;;;13.23;4.38;;;;;;;;;;5054050;28;20041;-68
2022/01/31 02:43:21;;;;;;;12.75;3.60;;;;;;;;;;5053226;28;20098;-69
2022/01/31 02:45:48;;;;;;;12.07;3.42;;;;;;;;;;5053467;28;20061;-68
2022/01/31 02:48:18;;;;;;;15.02;3.92;;;;;;;;;;5053355;28;20048;-68
2022/01/31 02:50:44;;;;;;;10.27;3.88;;;;;;;;;;5053136;28;20045;-68
2022/01/31 02:53:13;;;;;;;10.18;3.85;;;;;;;;;;5053160;28;20075;-68
2022/01/31 02:55:43;;;;;;;10.57;3.40;;;;;;;;;;5053248;28;20110;-68
2022/01/31 02:58:10;;;;;;;15.90;3.75;;;;;;;;;;5053266;28;20053;-68
2022/01/31 03:00:36;;;;;;;11.57;3.22;;;;;;;;;;5053535;28;20045;-69
2022/01/31 03:03:03;;;;;;;8.50;3.92;;;;;;;;;;5053021;28;20412;-68
2022/01/31 03:05:30;;;;;;;10.05;4.45;;;;;;;;;;5053176;28;20261;-68
2022/01/31 03:07:57;;;;;;;9.93;3.47;;;;;;;;;;5074699;22;20048;-67
2022/01/31 03:10:24;;;;;;;11.45;3.80;;;;;;;;;;5053214;28;20470;-67
2022/01/31 03:12:51;;;;;;;12.48;3.53;;;;;;;;;;5051604;28;20044;-67
2022/01/31 03:15:17;;;;;;;12.57;3.65;;;;;;;;;;5051457;28;20040;-67
2022/01/31 03:17:48;;;;;;;11.25;2.97;;;;;;;;;;5051044;28;20103;-68
2022/01/31 03:20:19;;;;;;;8.27;3.83;;;;;;;;;;5052912;28;20107;-67
2022/01/31 03:22:46;;;;;;;10.05;3.38;;;;;;;;;;5051378;28;20404;-66
2022/01/31 03:25:13;;;;;;;7.68;3.50;;;;;;;;;;5051272;28;20499;-66
2022/01/31 03:27:40;;;;;;;9.85;3.55;;;;;;;;;;5034987;28;20232;-67
2022/01/31 03:30:09;;;;;;;9.95;3.63;;;;;;;;;;5035011;28;20049;-67
2022/01/31 03:32:35;;;;;;;11.48;3.25;;;;;;;;;;5034706;28;20495;-67
2022/01/31 03:35:03;;;;;;;12.23;3.78;;;;;;;;;;5050269;28;20049;-67
2022/01/31 03:37:29;;;;;;;11.35;3.22;;;;;;;;;;5050710;28;20041;-66
2022/01/31 03:39:56;;;;;;;11.45;4.13;;;;;;;;;;5051089;28;20461;-67
2022/01/31 03:42:23;;;;;;;12.55;3.83;;;;;;;;;;5050960;28;20091;-67
2022/01/31 03:44:49;;;;;;;14.05;4.43;;;;;;;;;;5052028;28;20057;-66
2022/01/31 03:47:17;;;;;;;11.77;3.10;;;;;;;;;;5050622;28;20099;-66
2022/01/31 03:49:43;;;;;;;14.10;3.72;;;;;;;;;;5050590;28;20095;-66
2022/01/31 03:52:10;;;;;;;8.43;3.85;;;;;;;;;;5051858;28;20094;-67
2022/01/31 03:54:37;;;;;;;10.48;3.70;;;;;;;;;;5051779;28;20053;-67
2022/01/31 03:57:03;;;;;;;11.38;3.45;;;;;;;;;;5050835;28;20079;-68
2022/01/31 03:59:30;;;;;;;10.85;3.63;;;;;;;;;;5034212;28;20415;-66
2022/01/31 04:01:57;;;;;;;8.25;3.58;;;;;;;;;;5051869;28;20465;-66
2022/01/31 04:04:24;;;;;;;12.40;3.85;;;;;;;;;;5034156;28;20052;-67
2022/01/31 04:06:50;;;;;;;15.60;4.18;;;;;;;;;;5050509;28;20056;-66
2022/01/31 04:09:17;;;;;;;12.55;4.25;;;;;;;;;;5051488;28;20503;-67
2022/01/31 04:11:45;;;;;;;16.17;4.85;;;;;;;;;;5051283;28;20049;-66
2022/01/31 04:14:12;;;;;;;11.02;3.65;;;;;;;;;;5051713;28;20048;-67
2022/01/31 04:16:39;;;;;;;14.07;4.00;;;;;;;;;;5034139;28;20496;-67
2022/01/31 04:19:06;;;;;;;11.10;4.47;;;;;;;;;;5050363;28;20079;-68
2022/01/31 04:21:32;;;;;;;13.73;3.35;;;;;;;;;;5050689;28;20049;-66
2022/01/31 04:23:59;;;;;;;9.73;3.10;;;;;;;;;;5033732;28;20053;-67
2022/01/31 04:26:32;;;;;;;10.73;3.47;;;;;;;;;;5051665;28;20108;-67
2022/01/31 04:29:08;;;;;;;7.78;2.75;;;;;;;;;;5051362;28;20052;-66
2022/01/31 04:31:40;;;;;;;7.65;3.92;;;;;;;;;;5015275;28;20041;-67
2022/01/31 04:34:09;;;;;;;10.13;4.40;;;;;;;;;;5031404;28;20543;-66
2022/01/31 04:36:36;;;;;;;14.60;3.75;;;;;;;;;;5030320;28;20069;-67
2022/01/31 04:39:03;;;;;;;7.30;3.28;;;;;;;;;;5025010;28;20050;-66
2022/01/31 04:41:30;;;;;;;11.95;4.35;;;;;;;;;;5031478;28;20049;-66
2022/01/31 04:44:02;;;;;;;10.00;3.60;;;;;;;;;;5030831;28;20049;-66
2022/01/31 04:46:30;;;;;;;13.50;4.30;;;;;;;;;;5031526;28;20554;-67
2022/01/31 04:48:56;;;;;;;10.25;3.95;;;;;;;;;;5044657;28;20088;-67
2022/01/31 04:51:23;;;;;;;10.48;3.75;;;;;;;;;;5049945;28;20045;-66
2022/01/31 04:53:50;;;;;;;14.13;4.13;;;;;;;;;;5050962;28;20053;-66
2022/01/31 04:56:17;;;;;;;11.65;3.85;;;;;;;;;;5051433;28;20064;-67
2022/01/31 04:58:43;;;;;;;11.45;3.75;;;;;;;;;;5049729;28;20053;-66
2022/01/31 05:01:10;;;;;;;10.10;3.58;;;;;;;;;;5051305;28;20115;-67
2022/01/31 05:03:37;;;;;;;11.98;4.75;;;;;;;;;;5051041;28;20056;-67
2022/01/31 05:06:04;;;;;;;12.40;4.15;;;;;;;;;;5050220;28;20473;-67
2022/01/31 05:08:32;;;;;;;14.25;4.97;;;;;;;;;;5049520;28;20060;-67
2022/01/31 05:10:59;;;;;;;13.48;6.03;;;;;;;;;;5051073;28;20132;-67
2022/01/31 05:13:26;;;;;;;13.52;5.25;;;;;;;;;;5049697;28;20514;-66
2022/01/31 05:15:53;;;;;;;16.90;5.18;;;;;;;;;;5050864;28;20126;-67
2022/01/31 05:18:20;;;;;;;8.60;4.60;;;;;;;;;;5051049;28;20435;-67
2022/01/31 05:20:47;;;;;;;13.40;4.72;;;;;;;;;;5050880;28;20491;-67
2022/01/31 05:23:14;;;;;;;8.60;4.15;;;;;;;;;;5049529;28;20103;-67
2022/01/31 05:25:40;;;;;;;10.93;4.13;;;;;;;;;;5049348;28;20092;-67
2022/01/31 05:28:08;;;;;;;18.23;4.60;;;;;;;;;;5051021;28;20045;-67
2022/01/31 05:30:34;;;;;;;12.82;4.32;;;;;;;;;;5049402;28;20079;-66
2022/01/31 05:33:01;;;;;;;12.65;5.15;;;;;;;;;;5050792;28;20041;-67
2022/01/31 05:35:29;;;;;;;8.27;4.10;;;;;;;;;;5050318;28;20045;-66
2022/01/31 05:38:00;;;;;;;10.80;4.78;;;;;;;;;;5051563;28;20128;-67
2022/01/31 05:40:28;;;;;;;13.40;4.82;;;;;;;;;;5052996;28;20041;-66
2022/01/31 05:42:55;;;;;;;11.48;4.28;;;;;;;;;;5051544;28;20430;-66
2022/01/31 05:45:21;;;;;;;12.23;4.07;;;;;;;;;;5049993;28;20049;-68
2022/01/31 05:47:48;;;;;;;14.77;3.90;;;;;;;;;;5033447;28;20075;-67
2022/01/31 05:50:14;;;;;;;9.55;3.65;;;;;;;;;;5038458;28;20461;-67
2022/01/31 05:52:41;;;;;;;7.65;3.55;;;;;;;;;;5013092;28;20096;-66
2022/01/31 05:55:08;;;;;;;9.93;4.13;;;;;;;;;;5030231;28;20049;-67
2022/01/31 05:57:36;;;;;;;7.35;3.33;;;;;;;;;;5033175;28;20053;-67
2022/01/31 06:00:05;;;;;;;18.02;4.45;;;;;;;;;;5017296;28;20049;-68
2022/01/31 06:02:32;;;;;;;9.45;3.80;;;;;;;;;;5033205;28;20500;-69
2022/01/31 06:04:59;;;;;;;11.80;5.30;;;;;;;;;;5033350;28;20297;-68
2022/01/31 06:07:25;;;;;;;10.93;3.30;;;;;;;;;;5034334;28;20049;-68
2022/01/31 06:09:52;;;;;;;12.15;3.92;;;;;;;;;;5034840;28;20111;-68
2022/01/31 06:12:19;;;;;;;10.40;3.22;;;;;;;;;;5034374;28;20052;-68
2022/01/31 06:14:46;;;;;;;11.75;3.25;;;;;;;;;;5000825;28;20045;-67
2022/01/31 06:17:13;;;;;;;7.07;2.92;;;;;;;;;;5033249;28;20057;-67
2022/01/31 06:19:40;;;;;;;9.65;3.53;;;;;;;;;;5033981;28;20049;-67
2022/01/31 06:22:07;;;;;;;10.63;3.30;;;;;;;;;;5034113;28;20046;-67
2022/01/31 06:24:34;;;;;;;14.50;3.75;;;;;;;;;;5048288;28;20053;-66
2022/01/31 06:27:00;;;;;;;8.52;3.10;;;;;;;;;;5053682;28;20095;-67
2022/01/31 06:29:27;;;;;;;10.50;3.95;;;;;;;;;;5052619;28;20049;-67
2022/01/31 06:31:53;;;;;;;12.88;3.00;;;;;;;;;;5053850;28;20049;-67
2022/01/31 06:34:20;;;;;;;9.38;2.67;;;;;;;;;;5032983;28;20049;-67
2022/01/31 06:36:47;;;;;;;9.50;2.95;;;;;;;;;;5035352;28;20496;-67
2022/01/31 06:39:13;;;;;;;11.57;3.40;;;;;;;;;;5051683;28;20257;-67
2022/01/31 06:41:40;;;;;;;12.02;3.97;;;;;;;;;;5053665;28;20300;-67
2022/01/31 06:44:06;;;;;;;9.73;3.10;;;;;;;;;;5052320;28;20458;-67
2022/01/31 06:46:33;;;;;;;10.02;3.65;;;;;;;;;;5050454;28;20139;-67
2022/01/31 06:49:00;;;;;;;10.48;3.53;;;;;;;;;;5033794;28;20057;-67
2022/01/31 06:51:28;;;;;;;10.70;4.00;;;;;;;;;;5051195;28;20107;-65
2022/01/31 06:53:57;;;;;;;12.77;4.50;;;;;;;;;;5051074;28;20053;-66
2022/01/31 06:56:29;;;;;;;9.00;3.30;;;;;;;;;;5051301;28;20118;-67
2022/01/31 06:58:57;;;;;;;15.93;4.85;;;;;;;;;;5049375;28;20457;-67
2022/01/31 07:01:25;;;;;;;12.10;4.85;;;;;;;;;;5049907;28;20053;-67
2022/01/31 07:03:54;;;;;;;12.27;4.38;;;;;;;;;;5033271;28;20499;-66
2022/01/31 07:06:23;;;;;;;15.45;5.05;;;;;;;;;;5050822;28;20087;-66
2022/01/31 07:08:50;;;;;;;14.40;4.15;;;;;;;;;;5033347;28;20110;-67
2022/01/31 07:11:22;;;;;;;14.02;4.55;;;;;;;;;;5049250;28;20049;-67
2022/01/31 07:13:53;;;;;;;13.70;4.72;;;;;;;;;;5049382;28;20131;-68
2022/01/31 07:16:20;;;;;;;10.80;3.50;;;;;;;;;;5033978;28;20048;-67
2022/01/31 07:18:51;;;;;;;8.10;3.45;;;;;;;;;;5050831;28;20553;-67
2022/01/31 07:21:18;;;;;;;11.13;3.70;;;;;;;;;;5049663;28;20048;-67
2022/01/31 07:26:33;;;;;;;8.00;3.80;;;;;;;;;;5050624;28;20111;-67
2022/01/31 07:28:59;;;;;;;7.30;2.70;;;;;;;;;;5050388;28;20358;-67
2022/01/31 07:31:26;;;;;;;9.32;3.25;;;;;;;;;;5050333;28;20087;-66
2022/01/31 07:33:52;;;;;;;10.05;3.13;;;;;;;;;;5050296;28;20052;-67
2022/01/31 07:36:19;;;;;;;7.63;3.00;;;;;;;;;;5050765;28;20098;-66
2022/01/31 07:38:45;;;;;;;9.05;3.20;;;;;;;;;;5049908;28;20095;-66
2022/01/31 07:41:14;;;;;;;11.27;4.47;;;;;;;;;;5049831;28;20546;-66
2022/01/31 07:43:43;;;;;;;6.13;3.03;;;;;;;;;;5050602;28;20045;-66
2022/01/31 07:46:13;;;;;;;9.07;2.83;;;;;;;;;;5050187;28;20477;-66
2022/01/31 07:48:40;;;;;;;7.05;2.90;;;;;;;;;;5049400;28;20048;-66
2022/01/31 07:51:08;;;;;;;8.25;2.72;;;;;;;;;;5049579;28;20041;-66
2022/01/31 07:53:38;;;;;;;6.63;2.40;;;;;;;;;;5032426;28;20049;-65
2022/01/31 07:56:08;;;;;;;9.25;3.47;;;;;;;;;;5049938;28;20053;-66
2022/01/31 07:58:38;;;;;;;5.82;2.83;;;;;;;;;;5049897;28;20098;-66
2022/01/31 08:01:05;;;;;;;5.25;2.65;;;;;;;;;;5050171;28;20041;-66
2022/01/31 08:03:32;;;;;;;6.30;2.30;;;;;;;;;;5048199;28;20492;-66
2022/01/31 08:05:58;;;;;;;5.85;2.05;;;;;;;;;;5048888;28;20052;-67
2022/01/31 08:08:28;;;;;;;6.78;2.35;;;;;;;;;;5050202;28;20098;-66
2022/01/31 08:10:59;;;;;;;3.92;2.15;;;;;;;;;;5048307;28;20049;-66
2022/01/31 08:13:26;;;;;;;1.75;1.48;;;;;;;;;;5048412;28;20425;-66
2022/01/31 08:16:09;;;;;;;3.95;1.80;;;;;;;;;;5048252;28;20106;-66
2022/01/31 08:18:43;;;;;;;2.92;1.50;;;;;;;;;;5033615;28;20060;-67
2022/01/31 08:21:11;;;;;;;3.50;1.75;;;;;;;;;;5013878;28;20065;-65
2022/01/31 08:23:38;;;;;;;2.05;1.15;;;;;;;;;;5038287;28;20053;-67
2022/01/31 08:26:08;;;;;;;1.60;1.10;;;;;;;;;;5019812;28;20504;-64
2022/01/31 08:28:41;;;;;;;1.75;1.00;;;;;;;;;;5036559;28;20432;-65
2022/01/31 08:31:23;;;;;;;1.10;0.80;;;;;;;;;;5036610;28;20053;-63
2022/01/31 08:36:24;;;;;;;1.35;0.90;;;;;;;;;;5037215;28;20045;-65
2022/01/31 08:38:51;;;;;;;2.22;1.00;;;;;;;;;;5035976;28;20049;-66
2022/01/31 08:41:18;;;;;;;3.17;1.10;;;;;;;;;;5038404;28;20053;-65
2022/01/31 08:43:45;;;;;;;1.15;1.05;;;;;;;;;;5018200;28;20061;-65
2022/01/31 08:46:13;;;;;;;1.08;0.60;;;;;;;;;;5037678;28;20424;-69
2022/01/31 08:48:40;;;;;;;1.05;0.60;;;;;;;;;;5022538;28;20053;-72
2022/01/31 08:51:09;;;;;;;2.65;1.00;;;;;;;;;;5037399;28;20462;-68
2022/01/31 08:53:36;;;;;;;2.50;1.27;;;;;;;;;;5035337;28;20049;-70
2022/01/31 08:56:11;;;;;;;3.67;0.90;;;;;;;;;;5023147;28;20045;-69
2022/01/31 08:58:44;;;;;;;0.80;0.80;;;;;;;;;;5036318;28;20041;-67
2022/01/31 09:01:12;;;;;;;2.33;1.00;;;;;;;;;;5034636;28;20092;-68
2022/01/31 09:03:44;;;;;;;1.83;0.90;;;;;;;;;;5055654;28;20041;-68
2022/01/31 09:06:17;;;;;;;1.27;0.88;;;;;;;;;;5037275;28;20052;-68
2022/01/31 09:08:43;;;;;;;2.25;1.38;;;;;;;;;;5042394;23;20132;-71
2022/01/31 09:11:10;;;;;;;1.90;1.35;;;;;;;;;;5041274;28;20041;-71
2022/01/31 09:13:37;;;;;;;7.82;1.35;;;;;;;;;;5042898;28;20052;-72
2022/01/31 09:16:05;;;;;;;3.20;0.90;;;;;;;;;;5034870;28;20045;-76
2022/01/31 09:18:32;;;;;;;2.55;1.20;;;;;;;;;;5019878;28;20431;-74
2022/01/31 09:20:59;;;;;;;3.08;1.52;;;;;;;;;;5020630;28;20050;-74
2022/01/31 09:23:27;;;;;;;3.28;1.38;;;;;;;;;;5014847;28;20054;-72
2022/01/31 09:25:54;;;;;;;1.15;1.00;;;;;;;;;;5000359;28;20057;-72
2022/01/31 09:28:21;;;;;;;0.90;0.88;;;;;;;;;;5014634;28;20049;-72
2022/01/31 09:30:48;;;;;;;2.13;1.10;;;;;;;;;;5024727;28;20057;-70
2022/01/31 09:33:15;;;;;;;3.17;1.65;;;;;;;;;;5024495;28;20133;-66
2022/01/31 09:35:42;;;;;;;1.77;1.45;;;;;;;;;;5025094;28;20076;-67
2022/01/31 09:38:12;;;;;;;2.67;1.08;;;;;;;;;;5026112;28;20053;-68
2022/01/31 09:40:40;;;;;;;3.92;1.50;;;;;;;;;;5023760;28;20496;-69
2022/01/31 09:51:14;;;;;;;2.70;1.00;;;;;;;;;;5022986;28;20041;-69
2022/01/31 09:53:52;;;;;;;2.92;1.65;;;;;;;;;;5017478;28;20100;-69
2022/01/31 09:56:22;;;;;;;2.00;1.85;;;;;;;;;;5020320;28;20069;-70
2022/01/31 09:58:49;;;;;;;4.53;1.20;;;;;;;;;;5021073;28;20061;-71
2022/01/31 10:01:20;;;;;;;5.32;1.10;;;;;;;;;;5025844;28;20049;-69
2022/01/31 10:03:50;;;;;;;3.55;1.17;;;;;;;;;;5022951;28;20091;-70
2022/01/31 10:06:18;;;;;;;3.22;1.20;;;;;;;;;;5025027;28;20060;-69
2022/01/31 10:08:45;;;;;;;1.85;1.10;;;;;;;;;;5004390;28;20046;-71
2022/01/31 10:11:29;;;;;;;3.35;1.10;;;;;;;;;;5038392;28;20488;-67
2022/01/31 10:16:55;;;;;;;4.65;1.80;;;;;;;;;;5034274;28;20073;-69
2022/01/31 10:19:44;;;;;;;4.28;1.38;;;;;;;;;;5020923;28;20136;-69
2022/01/31 10:22:13;;;;;;;4.65;1.92;;;;;;;;;;5021423;28;20046;-72
2022/01/31 10:24:42;;;;;;;4.03;1.20;;;;;;;;;;5020128;28;20053;-72
2022/01/31 10:27:10;;;;;;;4.88;1.38;;;;;;;;;;5021736;28;20092;-68
2022/01/31 10:29:37;;;;;;;3.05;1.08;;;;;;;;;;5020388;28;20046;-69
2022/01/31 10:32:20;;;;;;;5.07;1.25;;;;;;;;;;5022421;28;20049;-68
2022/01/31 10:34:54;;;;;;;4.15;1.85;;;;;;;;;;5022560;28;20045;-68
2022/01/31 10:37:22;;;;;;;1.70;1.25;;;;;;;;;;5020758;28;20524;-66
2022/01/31 10:54:10;;;;;;;3.35;1.25;;;;;;;;;;5023455;28;20138;-67
2022/01/31 10:56:53;;;;;;;3.25;1.17;;;;;;;;;;5023703;28;20050;-67
2022/01/31 10:59:24;;;;;;;3.70;1.20;;;;;;;;;;5018615;28;20144;-68
2022/01/31 11:01:53;;;;;;;2.38;1.10;;;;;;;;;;5022279;28;20046;-69
2022/01/31 11:04:35;;;;;;;3.35;1.00;;;;;;;;;;5019000;28;20049;-68
2022/01/31 11:07:04;;;;;;;6.20;1.73;;;;;;;;;;5025244;28;20049;-71
2022/01/31 11:09:31;;;;;;;4.90;1.92;;;;;;;;;;5020174;28;20053;-71
2022/01/31 11:11:58;;;;;;;4.68;1.35;;;;;;;;;;5036649;28;20103;-71
2022/01/31 11:14:26;;;;;;;4.57;1.35;;;;;;;;;;5037692;28;20073;-73
2022/01/31 11:16:54;;;;;;;5.68;1.90;;;;;;;;;;5021576;28;20070;-67
2022/01/31 11:19:29;;;;;;;5.57;2.05;;;;;;;;;;5021234;28;20123;-71
2022/01/31 11:21:59;;;;;;;4.57;1.85;;;;;;;;;;5038070;28;20056;-70
2022/01/31 11:24:30;;;;;;;4.15;1.58;;;;;;;;;;5016673;28;20116;-67
2022/01/31 11:27:10;;;;;;;4.13;1.40;;;;;;;;;;5017666;28;20064;-72
2022/01/31 11:29:41;;;;;;;3.17;1.13;;;;;;;;;;5021348;28;20049;-70
2022/01/31 11:32:08;;;;;;;3.70;1.38;;;;;;;;;;4997702;28;20453;-70
2022/01/31 11:34:37;;;;;;;3.92;0.98;;;;;;;;;;5019645;28;20096;-68
2022/01/31 11:37:04;;;;;;;3.30;1.20;;;;;;;;;;5039363;28;20049;-72
2022/01/31 11:39:30;;;;;;;4.07;1.60;;;;;;;;;;5032117;28;20124;-70
2022/01/31 11:41:59;;;;;;;4.65;1.77;;;;;;;;;;5021071;28;20053;-71
2022/01/31 11:44:31;;;;;;;1.95;1.02;;;;;;;;;;4986898;28;20065;-71
2022/01/31 11:46:58;;;;;;;4.20;1.90;;;;;;;;;;5037732;28;20104;-70
2022/01/31 11:49:25;;;;;;;5.38;1.20;;;;;;;;;;4981963;28;20133;-70
2022/01/31 11:52:07;;;;;;;3.53;1.60;;;;;;;;;;4999884;28;20049;-70
2022/01/31 11:54:46;;;;;;;4.32;1.15;;;;;;;;;;4998626;28;20054;-70
2022/01/31 11:57:14;;;;;;;6.45;1.45;;;;;;;;;;5015769;28;20041;-70
2022/01/31 11:59:42;;;;;;;3.08;1.45;;;;;;;;;;5020448;28;20065;-70
2022/01/31 12:02:12;;;;;;;3.30;1.20;;;;;;;;;;5000219;28;20102;-72
2022/01/31 12:04:44;;;;;;;4.45;1.65;;;;;;;;;;5019327;28;20049;-72
2022/01/31 12:07:42;;;;;;;2.45;0.90;;;;;;;;;;5036048;28;20057;-70
2022/01/31 12:10:21;;;;;;;3.88;1.33;;;;;;;;;;5002530;28;20072;-71
2022/01/31 12:12:59;;;;;;;4.47;1.10;;;;;;;;;;4999811;28;20480;-71
2022/01/31 12:23:56;;;;;;;2.80;0.75;;;;;;;;;;5029694;28;20501;-69
2022/01/31 12:26:32;;;;;;;2.50;0.80;;;;;;;;;;5020547;28;20054;-71
2022/01/31 12:29:13;;;;;;;4.10;1.42;;;;;;;;;;5022155;28;20496;-71
2022/01/31 12:31:43;;;;;;;4.03;1.15;;;;;;;;;;5020770;28;20073;-69
2022/01/31 12:34:33;;;;;;;5.95;1.45;;;;;;;;;;5021517;28;20115;-70
2022/01/31 12:37:39;;;;;;;4.93;1.08;;;;;;;;;;4998267;28;20058;-70
2022/01/31 12:40:18;;;;;;;7.25;1.30;;;;;;;;;;5019564;28;20105;-71
2022/01/31 12:43:12;;;;;;;5.75;1.17;;;;;;;;;;4996945;28;20441;-66
2022/01/31 12:45:39;;;;;;;3.08;1.40;;;;;;;;;;5014000;28;20080;-66
2022/01/31 12:48:09;;;;;;;8.00;2.50;;;;;;;;;;5022105;28;20081;-66
2022/01/31 12:50:48;;;;;;;3.92;1.30;;;;;;;;;;5021055;28;20080;-66
2022/01/31 12:53:41;;;;;;;4.78;1.10;;;;;;;;;;5023118;28;20049;-67
2022/01/31 12:56:13;;;;;;;4.90;1.50;;;;;;;;;;5006686;28;20077;-67
2022/01/31 12:58:44;;;;;;;7.97;1.20;;;;;;;;;;5020931;28;20315;-67
2022/01/31 13:01:13;;;;;;;4.55;1.33;;;;;;;;;;5022884;28;20554;-67
2022/01/31 13:03:42;;;;;;;2.55;1.30;;;;;;;;;;5019892;28;20046;-67
2022/01/31 13:06:32;;;;;;;4.93;1.00;;;;;;;;;;5024090;28;20563;-66
2022/01/31 13:09:19;;;;;;;4.80;2.03;;;;;;;;;;5020657;28;20511;-67
2022/01/31 13:11:50;;;;;;;6.43;1.10;;;;;;;;;;5021501;28;20053;-67
2022/01/31 13:14:21;;;;;;;2.35;1.10;;;;;;;;;;5041051;28;20088;-67
2022/01/31 13:17:27;;;;;;;6.00;1.45;;;;;;;;;;5025914;28;20124;-67
2022/01/31 13:19:55;;;;;;;4.53;2.00;;;;;;;;;;5025140;28;20504;-67
2022/01/31 13:22:31;;;;;;;2.95;1.27;;;;;;;;;;5024906;28;20389;-67
2022/01/31 13:25:11;;;;;;;2.95;1.08;;;;;;;;;;5025628;28;20125;-67
2022/01/31 13:27:59;;;;;;;2.17;1.35;;;;;;;;;;5023262;28;20052;-67
2022/01/31 13:30:32;;;;;;;4.30;1.20;;;;;;;;;;5025789;28;20049;-67
2022/01/31 13:33:04;;;;;;;4.20;1.05;;;;;;;;;;5023760;28;20099;-67
2022/01/31 13:35:33;;;;;;;6.50;2.08;;;;;;;;;;5023582;28;20054;-66
2022/01/31 13:38:07;;;;;;;4.70;1.40;;;;;;;;;;5024495;28;20417;-67
2022/01/31 13:40:44;;;;;;;4.43;1.60;;;;;;;;;;5025019;28;20053;-67
2022/01/31 13:43:33;;;;;;;6.55;1.90;;;;;;;;;;5022143;28;20088;-67
2022/01/31 13:46:23;;;;;;;4.75;2.25;;;;;;;;;;5024508;28;20053;-67
2022/01/31 13:48:58;;;;;;;4.60;1.75;;;;;;;;;;5021851;28;20053;-67
2022/01/31 13:51:38;;;;;;;8.18;2.97;;;;;;;;;;5004926;28;20100;-64
2022/01/31 13:54:08;;;;;;;4.47;1.38;;;;;;;;;;5015896;28;20096;-65
2022/01/31 13:56:39;;;;;;;4.93;1.58;;;;;;;;;;5027010;28;20053;-65
2022/01/31 13:59:09;;;;;;;3.58;1.13;;;;;;;;;;5016165;28;20100;-64
2022/01/31 14:01:35;;;;;;;7.25;1.83;;;;;;;;;;5003171;28;20049;-65
2022/01/31 14:04:02;;;;;;;5.43;1.77;;;;;;;;;;5024551;28;20452;-65
2022/01/31 14:06:33;;;;;;;3.75;1.38;;;;;;;;;;5025506;28;20049;-65
2022/01/31 14:09:04;;;;;;;4.38;1.08;;;;;;;;;;5022206;28;20058;-68
2022/01/31 14:11:42;;;;;;;7.53;1.40;;;;;;;;;;5014971;28;20061;-67
2022/01/31 14:14:11;;;;;;;7.32;1.83;;;;;;;;;;5021441;28;20050;-67
2022/01/31 14:16:41;;;;;;;2.85;1.55;;;;;;;;;;5025432;28;20131;-65
2022/01/31 14:19:10;;;;;;;7.57;1.80;;;;;;;;;;5021314;28;20046;-69
2022/01/31 14:21:39;;;;;;;7.05;2.05;;;;;;;;;;5005987;28;20056;-68
2022/01/31 14:24:07;;;;;;;5.25;1.30;;;;;;;;;;5026621;28;20049;-71
2022/01/31 14:27:02;;;;;;;3.95;1.05;;;;;;;;;;5023858;28;20085;-68
2022/01/31 14:29:36;;;;;;;4.45;1.42;;;;;;;;;;5021622;28;20046;-70
2022/01/31 14:32:05;;;;;;;6.68;2.30;;;;;;;;;;5020167;28;20459;-68
2022/01/31 14:34:41;;;;;;;5.90;1.75;;;;;;;;;;5016531;28;20081;-70
2022/01/31 14:37:09;;;;;;;4.32;1.08;;;;;;;;;;5014367;28;20078;-72
2022/01/31 14:40:07;;;;;;;7.53;1.60;;;;;;;;;;5005811;28;20496;-72
2022/01/31 14:47:58;;;;;;;1.98;0.93;;;;;;;;;;5020351;28;20053;-70
2022/01/31 14:50:26;;;;;;;3.92;1.95;;;;;;;;;;5024684;28;20045;-70
2022/01/31 14:52:53;;;;;;;7.38;1.33;;;;;;;;;;5020347;28;20407;-71
2022/01/31 14:55:22;;;;;;;12.68;2.63;;;;;;;;;;5022029;28;20050;-68
2022/01/31 14:57:50;;;;;;;6.50;2.00;;;;;;;;;;5022047;28;20058;-68
2022/01/31 15:00:19;;;;;;;3.70;1.35;;;;;;;;;;5023728;28;20053;-71
2022/01/31 15:02:46;;;;;;;6.72;1.55;;;;;;;;;;5024344;28;20045;-69
2022/01/31 15:05:16;;;;;;;7.78;1.63;;;;;;;;;;5024123;28;20045;-69
2022/01/31 15:07:43;;;;;;;6.45;2.03;;;;;;;;;;4996332;28;20046;-75
2022/01/31 15:10:11;;;;;;;7.20;1.52;;;;;;;;;;5026539;23;20045;-68
2022/01/31 15:12:39;;;;;;;7.38;1.80;;;;;;;;;;5040295;28;20104;-69
2022/01/31 15:15:07;;;;;;;4.82;1.50;;;;;;;;;;5008098;28;20099;-69
2022/01/31 15:17:36;;;;;;;4.32;1.40;;;;;;;;;;5018884;28;20056;-71
2022/01/31 15:20:11;;;;;;;7.15;1.65;;;;;;;;;;5009073;28;20050;-68
2022/01/31 15:22:38;;;;;;;4.55;1.60;;;;;;;;;;5011068;28;20050;-66
2022/01/31 15:25:05;;;;;;;10.77;1.98;;;;;;;;;;5012462;28;20420;-68
2022/01/31 15:27:32;;;;;;;7.80;2.65;;;;;;;;;;5011502;28;20045;-68
2022/01/31 15:30:02;;;;;;;6.10;2.55;;;;;;;;;;5009442;28;20049;-68
2022/01/31 15:32:29;;;;;;;8.32;2.30;;;;;;;;;;5012222;28;20108;-69
2022/01/31 15:34:56;;;;;;;7.63;3.08;;;;;;;;;;4994358;28;20536;-66
2022/01/31 15:37:24;;;;;;;7.95;2.63;;;;;;;;;;5011336;28;20045;-68
2022/01/31 15:40:14;;;;;;;9.05;2.88;;;;;;;;;;5009786;28;20088;-71
2022/01/31 15:42:40;;;;;;;10.45;1.75;;;;;;;;;;5011104;28;20049;-68